createdAt,value
2023-11-30T00:00:20.427Z,100356.88
2023-11-30T00:02:47.107Z,100351.72
2023-11-30T00:05:13.936Z,100349.13
2023-11-30T00:07:40.554Z,100357.56
2023-11-30T00:10:07.658Z,100354.00
2023-11-30T00:12:34.136Z,100354.97
2023-11-30T00:15:00.669Z,100355.94
2023-11-30T00:17:27.310Z,100361.13
2023-11-30T00:19:53.805Z,100353.47
2023-11-30T00:22:20.307Z,100357.81
2023-11-30T00:24:46.778Z,100350.06
2023-11-30T00:27:13.332Z,100346.38
2023-11-30T00:29:39.925Z,100345.69
2023-11-30T00:32:06.818Z,100342.56
2023-11-30T00:34:33.321Z,100342.03
2023-11-30T00:36:59.827Z,100329.19
2023-11-30T00:39:26.454Z,100330.25
2023-11-30T00:41:53.164Z,100328.78
2023-11-30T00:44:22.310Z,100337.34
2023-11-30T00:46:49.115Z,100328.78
2023-11-30T00:49:15.791Z,100331.47
2023-11-30T00:51:42.286Z,100336.81
2023-11-30T00:54:08.939Z,100330.66
2023-11-30T00:56:35.538Z,100331.72
2023-11-30T00:59:02.144Z,100329.44
2023-11-30T01:01:28.712Z,100337.19
2023-11-30T01:03:55.257Z,100326.97
2023-11-30T01:06:21.805Z,100332.84
2023-11-30T01:08:48.463Z,100329.03
2023-11-30T01:11:15.064Z,100321.00
2023-11-30T01:13:41.647Z,100321.56
2023-11-30T01:16:08.706Z,100323.06
2023-11-30T01:18:35.342Z,100324.81
2023-11-30T01:21:02.034Z,100314.47
2023-11-30T01:23:28.591Z,100306.84
2023-11-30T01:25:55.212Z,100309.44
2023-11-30T01:28:21.736Z,100302.63
2023-11-30T01:30:48.229Z,100307.81
2023-11-30T01:33:14.839Z,100310.50
2023-11-30T01:35:41.537Z,100309.84
2023-11-30T01:38:08.113Z,100303.00
2023-11-30T01:40:34.768Z,100306.00
2023-11-30T01:43:01.334Z,100297.66
2023-11-30T01:45:27.841Z,100302.28
2023-11-30T01:47:54.544Z,100304.88
2023-11-30T01:50:21.579Z,100304.22
2023-11-30T01:52:48.278Z,100310.31
2023-11-30T01:55:15.042Z,100305.28
2023-11-30T01:57:42.399Z,100302.53
2023-11-30T02:00:10.934Z,100298.06
2023-11-30T02:02:37.645Z,100293.72
2023-11-30T02:05:04.936Z,100294.53
2023-11-30T02:07:31.460Z,100292.63
2023-11-30T02:09:58.010Z,100297.00
2023-11-30T02:12:24.554Z,100294.41
2023-11-30T02:14:51.073Z,100295.09
2023-11-30T02:17:17.596Z,100290.06
2023-11-30T02:19:44.250Z,100297.00
2023-11-30T02:22:10.780Z,100297.13
2023-11-30T02:24:37.330Z,100295.50
2023-11-30T02:27:04.128Z,100284.44
2023-11-30T02:29:30.657Z,100280.91
2023-11-30T02:31:57.192Z,100283.63
2023-11-30T02:34:23.714Z,100280.06
2023-11-30T02:36:50.219Z,100278.19
2023-11-30T02:39:16.861Z,100278.59
2023-11-30T02:41:43.389Z,100274.25
2023-11-30T02:44:09.989Z,100283.66
2023-11-30T02:46:36.486Z,100282.56
2023-11-30T02:49:03.028Z,100274.69
2023-11-30T02:51:29.796Z,100277.25
2023-11-30T02:53:56.513Z,100269.34
2023-11-30T02:56:23.088Z,100267.59
2023-11-30T02:58:49.618Z,100278.78
2023-11-30T03:01:16.318Z,100275.22
2023-11-30T03:03:43.133Z,100270.88
2023-11-30T03:06:13.716Z,100276.03
2023-11-30T03:08:40.220Z,100270.88
2023-11-30T03:11:06.903Z,100273.59
2023-11-30T03:13:33.432Z,100272.09
2023-11-30T03:16:00.070Z,100273.97
2023-11-30T03:18:26.774Z,100270.03
2023-11-30T03:20:53.533Z,100270.56
2023-11-30T03:23:20.108Z,100264.44
2023-11-30T03:25:47.129Z,100263.50
2023-11-30T03:28:13.889Z,100265.13
2023-11-30T03:30:40.541Z,100265.28
2023-11-30T03:33:07.247Z,100271.53
2023-11-30T03:35:33.893Z,100266.22
2023-11-30T03:38:00.494Z,100272.91
2023-11-30T03:40:27.090Z,100265.94
2023-11-30T03:42:53.580Z,100262.28
2023-11-30T03:45:20.172Z,100260.78
2023-11-30T03:47:46.807Z,100262.56
2023-11-30T03:50:13.381Z,100257.53
2023-11-30T03:52:39.983Z,100260.38
2023-11-30T03:55:06.806Z,100258.59
2023-11-30T03:57:33.495Z,100267.88
2023-11-30T04:00:00.092Z,100263.38
2023-11-30T04:02:26.812Z,100274.41
2023-11-30T04:04:53.383Z,100267.47
2023-11-30T04:07:20.040Z,100273.47
2023-11-30T04:09:47.693Z,100265.69
2023-11-30T04:12:14.260Z,100263.09
2023-11-30T04:14:40.835Z,100263.09
2023-11-30T04:17:08.062Z,100263.09
2023-11-30T04:19:34.563Z,100260.66
2023-11-30T04:22:01.122Z,100258.06
2023-11-30T04:24:27.682Z,100262.28
2023-11-30T04:26:54.495Z,100263.91
2023-11-30T04:29:20.987Z,100262.97
2023-11-30T04:31:47.582Z,100263.09
2023-11-30T04:34:14.273Z,100264.63
2023-11-30T04:36:40.825Z,100256.16
2023-11-30T04:39:07.533Z,100256.97
2023-11-30T04:41:34.092Z,100271.41
2023-11-30T04:44:00.672Z,100263.50
2023-11-30T04:46:27.743Z,100264.63
2023-11-30T04:48:55.707Z,100262.97
2023-11-30T04:51:23.054Z,100269.91
2023-11-30T04:53:50.366Z,100272.38
2023-11-30T04:56:17.014Z,100268.13
2023-11-30T04:58:43.941Z,100260.09
2023-11-30T05:01:10.588Z,100259.84
2023-11-30T05:03:37.490Z,100269.13
2023-11-30T05:06:04.394Z,100257.81
2023-11-30T05:08:30.935Z,100259.59
2023-11-30T05:10:58.643Z,100256.72
2023-11-30T05:13:25.128Z,100259.31
2023-11-30T05:15:51.731Z,100263.69
2023-11-30T05:18:18.392Z,100264.34
2023-11-30T05:20:44.913Z,100255.63
2023-11-30T05:23:11.412Z,100263.41
2023-11-30T05:25:37.983Z,100262.47
2023-11-30T05:28:05.794Z,100262.31
2023-11-30T05:30:32.335Z,100261.66
2023-11-30T05:32:58.994Z,100261.75
2023-11-30T05:35:25.599Z,100261.75
2023-11-30T05:37:52.045Z,100258.22
2023-11-30T05:40:20.305Z,100263.28
2023-11-30T05:42:46.866Z,100260.69
2023-11-30T05:45:13.412Z,100260.69
2023-11-30T05:47:40.063Z,100259.88
2023-11-30T05:50:07.217Z,100262.31
2023-11-30T05:52:33.853Z,100256.31
2023-11-30T05:55:00.470Z,100258.75
2023-11-30T05:57:27.443Z,100264.63
2023-11-30T05:59:54.072Z,100266.25
2023-11-30T06:02:22.559Z,100267.94
2023-11-30T06:04:53.574Z,100270.38
2023-11-30T06:07:21.476Z,100268.44
2023-11-30T06:09:48.489Z,100277.19
2023-11-30T06:12:15.129Z,100273.63
2023-11-30T06:14:41.834Z,100274.47
2023-11-30T06:17:08.366Z,100280.47
2023-11-30T06:19:35.041Z,100278.13
2023-11-30T06:22:02.359Z,100279.78
2023-11-30T06:24:30.875Z,100283.06
2023-11-30T06:26:59.248Z,100286.47
2023-11-30T06:29:26.197Z,100293.25
2023-11-30T06:31:52.883Z,100294.91
2023-11-30T06:34:19.589Z,100286.19
2023-11-30T06:36:46.200Z,100294.09
2023-11-30T06:39:12.799Z,100302.66
2023-11-30T06:41:39.333Z,100294.09
2023-11-30T06:44:05.849Z,100292.31
2023-11-30T06:46:32.369Z,100299.16
2023-11-30T06:48:58.873Z,100294.09
2023-11-30T06:51:25.523Z,100288.22
2023-11-30T06:53:52.053Z,100291.75
2023-11-30T06:56:18.603Z,100289.88
2023-11-30T06:58:45.261Z,100291.63
2023-11-30T07:01:11.918Z,100289.88
2023-11-30T07:03:42.751Z,100290.81
2023-11-30T07:06:10.684Z,100293.25
2023-11-30T07:08:37.407Z,100289.06
2023-11-30T07:11:08.436Z,100293.41
2023-11-30T07:13:35.165Z,100287.97
2023-11-30T07:16:01.919Z,100290.41
2023-11-30T07:18:28.680Z,100285.94
2023-11-30T07:20:55.286Z,100292.75
2023-11-30T07:23:21.848Z,100281.94
2023-11-30T07:25:48.585Z,100291.50
2023-11-30T07:28:15.206Z,100291.63
2023-11-30T07:30:44.799Z,100287.53
2023-11-30T07:33:11.918Z,100286.97
2023-11-30T07:35:41.736Z,100288.09
2023-11-30T07:38:08.936Z,100304.44
2023-11-30T07:40:35.642Z,100305.09
2023-11-30T07:43:03.497Z,100304.19
2023-11-30T07:45:31.198Z,100307.59
2023-11-30T07:47:58.695Z,100305.25
2023-11-30T07:50:28.310Z,100314.09
2023-11-30T07:52:55.021Z,100310.00
2023-11-30T07:55:21.806Z,100315.47
2023-11-30T07:57:49.745Z,100318.44
2023-11-30T08:00:16.921Z,100313.53
2023-11-30T08:02:44.040Z,100315.28
2023-11-30T08:05:13.275Z,100316.25
2023-11-30T08:07:39.892Z,100311.06
2023-11-30T08:10:07.458Z,100306.97
2023-11-30T08:12:34.195Z,100313.81
2023-11-30T08:15:00.973Z,100316.25
2023-11-30T08:17:27.791Z,100308.22
2023-11-30T08:19:54.372Z,100315.72
2023-11-30T08:22:20.917Z,100316.94
2023-11-30T08:24:47.532Z,100302.66
2023-11-30T08:27:14.142Z,100303.34
2023-11-30T08:29:41.254Z,100297.09
2023-11-30T08:32:07.883Z,100298.31
2023-11-30T08:34:34.347Z,100297.19
2023-11-30T08:37:01.212Z,100300.03
2023-11-30T08:39:29.738Z,100303.75
2023-11-30T08:41:56.869Z,100298.56
2023-11-30T08:44:26.014Z,100298.56
2023-11-30T08:46:53.839Z,100288.47
2023-11-30T08:49:20.597Z,100290.50
2023-11-30T08:51:47.333Z,100286.25
2023-11-30T08:54:14.107Z,100292.13
2023-11-30T08:56:40.725Z,100291.97
2023-11-30T08:59:07.293Z,100283.28
2023-11-30T09:01:34.174Z,100289.13
2023-11-30T09:04:04.839Z,100294.19
2023-11-30T09:06:32.001Z,100288.88
2023-11-30T09:08:58.649Z,100292.16
2023-11-30T09:11:25.225Z,100291.22
2023-11-30T09:13:53.502Z,100292.72
2023-11-30T09:16:20.253Z,100285.75
2023-11-30T09:18:46.976Z,100288.22
2023-11-30T09:21:13.683Z,100293.13
2023-11-30T09:23:40.313Z,100287.53
2023-11-30T09:26:08.064Z,100291.50
2023-11-30T09:28:38.437Z,100289.34
2023-11-30T09:31:07.203Z,100291.38
2023-11-30T09:33:33.939Z,100282.38
2023-11-30T09:36:00.600Z,100291.66
2023-11-30T09:38:27.119Z,100286.19
2023-11-30T09:40:53.763Z,100282.94
2023-11-30T09:43:20.851Z,100291.94
2023-11-30T09:45:49.485Z,100286.19
2023-11-30T09:48:16.209Z,100288.25
2023-11-30T09:50:43.183Z,100286.19
2023-11-30T09:53:10.001Z,100292.47
2023-11-30T09:55:37.635Z,100285.91
2023-11-30T09:58:05.001Z,100288.66
2023-11-30T10:00:31.758Z,100294.22
2023-11-30T10:03:01.215Z,100289.16
2023-11-30T10:05:29.872Z,100289.25
2023-11-30T10:08:00.438Z,100290.66
2023-11-30T10:10:27.260Z,100283.81
2023-11-30T10:12:57.106Z,100280.00
2023-11-30T10:15:24.103Z,100277.69
2023-11-30T10:17:50.962Z,100279.75
2023-11-30T10:20:19.734Z,100279.59
2023-11-30T10:22:46.535Z,100273.84
2023-11-30T10:25:14.188Z,100274.53
2023-11-30T10:27:43.364Z,100273.31
2023-11-30T10:30:12.395Z,100280.81
2023-11-30T10:32:40.894Z,100276.09
2023-11-30T10:35:13.584Z,100277.88
2023-11-30T10:37:48.962Z,100283.88
2023-11-30T10:40:18.782Z,100276.63
2023-11-30T10:42:49.252Z,100278.63
2023-11-30T10:45:16.758Z,100284.69
2023-11-30T10:47:44.001Z,100278.41
2023-11-30T10:50:13.056Z,100280.31
2023-11-30T10:52:40.838Z,100267.78
2023-11-30T10:55:13.271Z,100279.94
2023-11-30T10:57:47.485Z,100278.59
2023-11-30T11:00:16.613Z,100277.25
2023-11-30T11:02:45.183Z,100279.56
2023-11-30T11:05:16.599Z,100278.59
2023-11-30T11:07:47.637Z,100279.56
2023-11-30T11:10:29.344Z,100275.34
2023-11-30T11:13:00.959Z,100280.66
2023-11-30T11:15:32.991Z,100279.44
2023-11-30T11:18:04.665Z,100291.03
2023-11-30T11:20:34.063Z,100287.75
2023-11-30T11:23:11.019Z,100293.25
2023-11-30T11:25:47.069Z,100296.09
2023-11-30T11:28:18.049Z,100296.38
2023-11-30T11:30:48.290Z,100294.44
2023-11-30T11:33:17.730Z,100300.44
2023-11-30T11:35:44.522Z,100292.09
2023-11-30T11:38:11.759Z,100300.97
2023-11-30T11:40:40.834Z,100299.34
2023-11-30T11:43:07.734Z,100292.09
2023-11-30T11:45:35.465Z,100295.94
2023-11-30T11:48:02.664Z,100293.47
2023-11-30T11:50:29.467Z,100295.28
2023-11-30T11:53:00.801Z,100289.94
2023-11-30T11:55:27.649Z,100280.09
2023-11-30T11:57:57.100Z,100284.88
2023-11-30T12:00:25.827Z,100280.94
2023-11-30T12:02:52.598Z,100279.44
2023-11-30T12:05:23.417Z,100276.81
2023-11-30T12:07:58.520Z,100279.03
2023-11-30T12:10:40.443Z,100271.97
2023-11-30T12:13:09.315Z,100269.47
2023-11-30T12:15:35.952Z,100272.34
2023-11-30T12:18:02.756Z,100267.31
2023-11-30T12:20:29.386Z,100266.63
2023-11-30T12:22:56.955Z,100267.75
2023-11-30T12:25:23.698Z,100272.66
2023-11-30T12:27:51.306Z,100262.84
2023-11-30T12:30:19.962Z,100259.53
2023-11-30T12:32:47.214Z,100256.41
2023-11-30T12:35:14.072Z,100253.25
2023-11-30T12:37:40.731Z,100252.56
2023-11-30T12:40:10.077Z,100256.38
2023-11-30T12:42:37.409Z,100256.25
2023-11-30T12:45:05.661Z,100257.31
2023-11-30T12:47:32.538Z,100262.66
2023-11-30T12:49:59.247Z,100265.53
2023-11-30T12:52:26.020Z,100253.28
2023-11-30T12:54:53.159Z,100257.91
2023-11-30T12:57:21.114Z,100264.03
2023-11-30T12:59:47.881Z,100255.69
2023-11-30T13:02:14.539Z,100261.16
2023-11-30T13:04:42.107Z,100262.94
2023-11-30T13:07:08.745Z,100264.00
2023-11-30T13:09:36.436Z,100264.13
2023-11-30T13:12:04.715Z,100266.72
2023-11-30T13:14:32.234Z,100276.00
2023-11-30T13:16:58.833Z,100270.16
2023-11-30T13:19:25.924Z,100274.00
2023-11-30T13:21:53.184Z,100284.78
2023-11-30T13:24:20.491Z,100280.13
2023-11-30T13:26:48.572Z,100277.94
2023-11-30T13:29:15.214Z,100277.69
2023-11-30T13:31:41.814Z,100286.53
2023-11-30T13:34:08.535Z,100276.88
2023-11-30T13:36:35.084Z,100280.94
2023-11-30T13:39:01.797Z,100287.78
2023-11-30T13:41:28.372Z,100288.50
2023-11-30T13:43:55.162Z,100284.41
2023-11-30T13:46:22.301Z,100279.47
2023-11-30T13:48:49.260Z,100280.56
2023-11-30T13:51:16.121Z,100275.09
2023-11-30T13:53:42.836Z,100280.16
2023-11-30T13:56:10.073Z,100277.53
2023-11-30T13:58:36.627Z,100279.47
2023-11-30T14:01:04.054Z,100281.53
2023-11-30T14:03:30.933Z,100290.00
2023-11-30T14:05:58.106Z,100287.13
2023-11-30T14:08:27.586Z,100292.88
2023-11-30T14:10:54.404Z,100282.88
2023-11-30T14:13:21.031Z,100286.72
2023-11-30T14:15:48.855Z,100282.78
2023-11-30T14:18:15.874Z,100280.72
2023-11-30T14:20:42.523Z,100278.00
2023-11-30T14:23:09.201Z,100285.50
2023-11-30T14:25:35.832Z,100281.03
2023-11-30T14:28:07.698Z,100285.13
2023-11-30T14:30:39.032Z,100294.09
2023-11-30T14:33:05.694Z,100282.66
2023-11-30T14:35:32.946Z,100284.31
2023-11-30T14:38:00.119Z,100280.63
2023-11-30T14:40:26.881Z,100287.84
2023-11-30T14:42:53.678Z,100298.34
2023-11-30T14:45:20.490Z,100299.59
2023-11-30T14:47:48.170Z,100301.88
2023-11-30T14:50:16.971Z,100295.63
2023-11-30T14:52:45.838Z,100305.72
2023-11-30T14:55:13.913Z,100305.59
2023-11-30T14:57:42.245Z,100307.63
2023-11-30T15:00:13.696Z,100306.34
2023-11-30T15:02:42.378Z,100310.06
2023-11-30T15:05:15.371Z,100309.94
2023-11-30T15:07:42.469Z,100302.81
2023-11-30T15:10:12.193Z,100305.31
2023-11-30T15:12:39.262Z,100310.22
2023-11-30T15:15:13.903Z,100320.97
2023-11-30T15:17:42.965Z,100313.47
2023-11-30T15:20:11.682Z,100314.44
2023-11-30T15:22:38.596Z,100319.63
2023-11-30T15:25:08.580Z,100312.66
2023-11-30T15:27:36.034Z,100312.50
2023-11-30T15:30:04.547Z,100305.16
2023-11-30T15:32:31.467Z,100304.34
2023-11-30T15:34:58.002Z,100300.13
2023-11-30T15:37:24.841Z,100300.66
2023-11-30T15:39:51.686Z,100307.47
2023-11-30T15:42:18.295Z,100308.03
2023-11-30T15:44:45.035Z,100310.63
2023-11-30T15:47:12.629Z,100316.75
2023-11-30T15:49:40.993Z,100308.19
2023-11-30T15:52:07.617Z,100308.84
2023-11-30T15:54:34.178Z,100303.41
2023-11-30T15:57:00.772Z,100309.13
2023-11-30T15:59:28.130Z,100318.78
2023-11-30T16:01:54.760Z,100317.31
2023-11-30T16:04:21.525Z,100322.22
2023-11-30T16:06:48.336Z,100321.50
2023-11-30T16:09:15.073Z,100325.63
2023-11-30T16:11:41.677Z,100330.66
2023-11-30T16:14:08.218Z,100327.13
2023-11-30T16:16:34.996Z,100322.75
2023-11-30T16:19:01.661Z,100322.31
2023-11-30T16:21:28.867Z,100320.16
2023-11-30T16:23:56.660Z,100319.75
2023-11-30T16:26:25.958Z,100320.03
2023-11-30T16:28:53.011Z,100323.16
2023-11-30T16:31:19.713Z,100324.00
2023-11-30T16:33:47.098Z,100327.66
2023-11-30T16:36:13.676Z,100329.00
2023-11-30T16:38:40.194Z,100339.50
2023-11-30T16:41:07.695Z,100325.75
2023-11-30T16:43:36.829Z,100322.75
2023-11-30T16:46:05.170Z,100321.63
2023-11-30T16:48:32.035Z,100322.34
2023-11-30T16:50:59.608Z,100323.00
2023-11-30T16:53:28.331Z,100324.78
2023-11-30T16:55:56.852Z,100327.09
2023-11-30T16:58:23.432Z,100324.25
2023-11-30T17:00:50.280Z,100320.84
2023-11-30T17:03:17.184Z,100309.22
2023-11-30T17:05:43.915Z,100310.59
2023-11-30T17:08:10.418Z,100301.72
2023-11-30T17:10:36.992Z,100300.38
2023-11-30T17:13:05.646Z,100305.44
2023-11-30T17:15:33.077Z,100302.56
2023-11-30T17:17:59.721Z,100302.41
2023-11-30T17:20:26.253Z,100309.72
2023-11-30T17:22:53.284Z,100310.97
2023-11-30T17:25:20.972Z,100312.03
2023-11-30T17:27:47.848Z,100309.44
2023-11-30T17:30:15.750Z,100312.31
2023-11-30T17:32:42.900Z,100316.69
2023-11-30T17:35:09.838Z,100317.63
2023-11-30T17:37:36.558Z,100314.09
2023-11-30T17:40:03.482Z,100328.28
2023-11-30T17:42:30.276Z,100324.72
2023-11-30T17:44:56.912Z,100330.16
2023-11-30T17:47:23.541Z,100336.00
2023-11-30T17:49:50.073Z,100339.13
2023-11-30T17:52:16.663Z,100339.78
2023-11-30T17:54:43.667Z,100334.22
2023-11-30T17:57:10.211Z,100341.56
2023-11-30T17:59:36.768Z,100347.19
2023-11-30T18:02:03.470Z,100343.75
2023-11-30T18:04:30.047Z,100342.03
2023-11-30T18:06:56.678Z,100342.84
2023-11-30T18:09:26.704Z,100335.06
2023-11-30T18:11:54.132Z,100342.56
2023-11-30T18:14:20.609Z,100341.72
2023-11-30T18:16:47.184Z,100344.59
2023-11-30T18:19:13.830Z,100344.47
2023-11-30T18:21:40.427Z,100340.34
2023-11-30T18:24:07.104Z,100346.19
2023-11-30T18:26:33.655Z,100335.38
2023-11-30T18:29:00.158Z,100346.28
2023-11-30T18:31:26.776Z,100353.63
2023-11-30T18:33:53.405Z,100354.19
2023-11-30T18:36:20.163Z,100350.50
2023-11-30T18:38:50.860Z,100358.28
2023-11-30T18:41:22.365Z,100364.09
2023-11-30T18:43:50.077Z,100363.41
2023-11-30T18:46:16.911Z,100360.28
2023-11-30T18:48:44.184Z,100364.78
2023-11-30T18:51:11.143Z,100368.75
2023-11-30T18:53:37.712Z,100368.50
2023-11-30T18:56:05.545Z,100365.38
2023-11-30T18:58:32.331Z,100364.09
2023-11-30T19:00:58.978Z,100361.22
2023-11-30T19:03:25.647Z,100369.91
2023-11-30T19:05:52.452Z,100366.09
2023-11-30T19:08:18.956Z,100379.28
2023-11-30T19:10:45.486Z,100379.34
2023-11-30T19:13:12.112Z,100374.28
2023-11-30T19:15:42.811Z,100374.03
2023-11-30T19:18:09.838Z,100368.44
2023-11-30T19:20:38.462Z,100377.59
2023-11-30T19:23:05.021Z,100376.53
2023-11-30T19:25:31.599Z,100379.25
2023-11-30T19:27:58.246Z,100374.44
2023-11-30T19:30:24.900Z,100380.56
2023-11-30T19:32:52.243Z,100373.53
2023-11-30T19:35:19.795Z,100380.31
2023-11-30T19:37:46.524Z,100376.91
2023-11-30T19:40:13.468Z,100368.59
2023-11-30T19:42:40.136Z,100361.34
2023-11-30T19:45:07.367Z,100374.91
2023-11-30T19:47:34.767Z,100384.28
2023-11-30T19:50:01.499Z,100382.38
2023-11-30T19:52:28.019Z,100390.13
2023-11-30T19:54:54.672Z,100383.81
2023-11-30T19:57:21.344Z,100392.03
2023-11-30T19:59:47.945Z,100389.44
2023-11-30T20:02:14.834Z,100387.53
2023-11-30T20:04:41.498Z,100386.72
2023-11-30T20:07:08.080Z,100396.41
2023-11-30T20:09:34.770Z,100395.50
2023-11-30T20:12:01.329Z,100399.00
2023-11-30T20:14:28.245Z,100403.91
2023-11-30T20:16:54.938Z,100404.53
2023-11-30T20:19:21.485Z,100406.78
2023-11-30T20:21:48.119Z,100407.16
2023-11-30T20:24:14.766Z,100400.84
2023-11-30T20:26:42.782Z,100395.69
2023-11-30T20:29:09.965Z,100401.28
2023-11-30T20:31:36.516Z,100399.03
2023-11-30T20:34:04.114Z,100415.09
2023-11-30T20:36:30.864Z,100416.75
2023-11-30T20:38:57.630Z,100406.41
2023-11-30T20:41:25.418Z,100408.78
2023-11-30T20:43:54.282Z,100412.00
2023-11-30T20:46:21.327Z,100414.81
2023-11-30T20:48:48.244Z,100420.94
2023-11-30T20:51:18.438Z,100421.88
2023-11-30T20:53:45.658Z,100413.06
2023-11-30T20:56:12.379Z,100413.38
2023-11-30T20:58:39.699Z,100406.31
2023-11-30T21:01:06.870Z,100420.09
2023-11-30T21:03:34.239Z,100419.84
2023-11-30T21:06:02.126Z,100422.09
2023-11-30T21:08:30.990Z,100418.63
2023-11-30T21:10:57.517Z,100430.03
2023-11-30T21:13:25.154Z,100422.91
2023-11-30T21:15:52.267Z,100426.41
2023-11-30T21:18:18.917Z,100421.00
2023-11-30T21:20:45.504Z,100425.59
2023-11-30T21:23:12.506Z,100427.56
2023-11-30T21:25:39.919Z,100436.59
2023-11-30T21:28:08.929Z,100438.59
2023-11-30T21:30:35.805Z,100448.69
2023-11-30T21:33:02.528Z,100451.16
2023-11-30T21:35:29.417Z,100445.75
2023-11-30T21:37:55.955Z,100446.09
2023-11-30T21:40:22.510Z,100448.28
2023-11-30T21:42:49.141Z,100453.59
2023-11-30T21:45:15.870Z,100456.28
2023-11-30T21:47:42.754Z,100457.94
2023-11-30T21:50:21.701Z,100456.63
2023-11-30T21:52:49.988Z,100462.88
2023-11-30T21:55:18.596Z,100461.94
2023-11-30T21:57:47.814Z,100460.50
2023-11-30T22:00:15.938Z,100463.75
2023-11-30T22:02:47.196Z,100468.34
2023-11-30T22:05:24.131Z,100476.13
2023-11-30T22:07:57.199Z,100473.88
2023-11-30T22:10:23.895Z,100482.44
2023-11-30T22:12:50.516Z,100484.19
2023-11-30T22:15:17.076Z,100480.00
2023-11-30T22:17:43.874Z,100473.75
2023-11-30T22:20:11.251Z,100472.09
2023-11-30T22:22:37.862Z,100476.81
2023-11-30T22:25:04.698Z,100488.94
2023-11-30T22:27:32.020Z,100483.38
2023-11-30T22:29:58.607Z,100491.16
2023-11-30T22:32:25.203Z,100482.81
2023-11-30T22:34:51.735Z,100478.59
2023-11-30T22:37:20.539Z,100492.56
2023-11-30T22:39:47.013Z,100494.22
2023-11-30T22:42:13.878Z,100495.06
2023-11-30T22:44:40.446Z,100507.97
2023-11-30T22:47:07.024Z,100501.97
2023-11-30T22:49:33.696Z,100489.75
2023-11-30T22:52:00.458Z,100497.13
2023-11-30T22:54:28.630Z,100493.72
2023-11-30T22:56:55.401Z,100493.06
2023-11-30T22:59:21.930Z,100498.91
2023-11-30T23:01:48.703Z,100503.50
2023-11-30T23:04:15.618Z,100495.28
2023-11-30T23:06:42.374Z,100506.69
2023-11-30T23:09:08.993Z,100513.03
2023-11-30T23:11:35.473Z,100517.97
2023-11-30T23:14:02.045Z,100516.22
2023-11-30T23:16:28.768Z,100517.03
2023-11-30T23:18:55.469Z,100518.44
2023-11-30T23:21:22.101Z,100517.84
2023-11-30T23:23:48.713Z,100524.91
2023-11-30T23:26:15.632Z,100530.19
2023-11-30T23:28:42.159Z,100531.00
2023-11-30T23:31:08.861Z,100527.75
2023-11-30T23:33:35.487Z,100522.34
2023-11-30T23:36:02.128Z,100523.50
2023-11-30T23:38:28.911Z,100523.28
2023-11-30T23:40:55.433Z,100521.41
2023-11-30T23:43:22.077Z,100530.69
2023-11-30T23:45:49.256Z,100524.44
2023-11-30T23:48:15.962Z,100536.31
2023-11-30T23:50:42.487Z,100535.50
2023-11-30T23:53:09.020Z,100535.50
2023-11-30T23:55:35.583Z,100532.09
2023-11-30T23:58:03.631Z,100530.09
